Wetter

Link zur aktuellen Windanzeige


Nordholz:

METAR:

2021/04/18 11:20 ETMN 181120Z 06010KT 9999 FEW030 SCT100 14/04 Q1022 BLU+

TAF:

2021/04/16 11:32 TAF ETMN 161010Z 1611/1620 05012KT 9999 NSW FEW025 SCT250

Wind EDXN:

18.04. 10:30z 040/10G15kt
18.04. 10:40z 050/12kt
18.04. 10:50z 060/15G20kt
18.04. 11:00z 060/11G18kt
18.04. 11:10z 050/08G16kt 020V080
18.04. 11:20z 050/09G14kt
18.04. 11:30z 080/09G16kt
18.04. 11:40z 050/10G17kt
18.04. 11:50z 080/12G15kt
18.04. 12:00z 040/12G18kt

Bremen:

METAR:

2021/04/18 11:50 EDDW 181150Z 02008KT 310V060 CAVOK 15/05 Q1021 NOSIG

TAF:

2021/04/18 12:27 TAF EDDW 181100Z 1812/1912 05007KT 9999 FEW035 PROB30 TEMPO 1818/1824 SHRA SCT035CB TEMPO 1904/1908 4000 BR BKN007 PROB30 TEMPO 1904/1907 0500 FG OVC001

Hamburg:

METAR:

2021/04/18 11:50 EDDH 181150Z 04010KT 010V070 9999 FEW032 14/06 Q1021 NOSIG

TAF:

2021/04/18 12:27 TAF EDDH 181100Z 1812/1918 04010KT 9999 FEW035 PROB30 TEMPO 1817/1822 SHRA SCT035CB BECMG 1819/1822 05004KT BECMG 1822/1901 3500 BR TEMPO 1901/1907 2000 BCFG BKN004 PROB30 TEMPO 1903/1907 0800 FG OVC001 BECMG 1907/1909 08009KT 9999

Hannover:

METAR:

2021/04/18 11:50 EDDV 181150Z VRB04KT 9999 BKN034 14/06 Q1020 NOSIG

TAF:

2021/04/18 12:27 TAF TAF EDDV 181100Z 1812/1912 02005KT 9999 SCT030 TEMPO 1815/1822 SHRA FEW015 BKN025CB PROB30 TEMPO 1817/1821 3500 TSRA BKN012CB BECMG 1822/1901 3500 BR TEMPO 1901/1908 2000 BR BKN004 PROB30 TEMPO 1901/1907 0700 FG VV001 BECMG 1907/1909 9999

Wikipedia Artikel: METARTAF

Daten von Aviation Weather Center der NOAA, es kann keine Garantie für Aktualität und Richtigkeit der Daten übernommen werden.

Die Nutzung dieser Daten zur Flugplanung ist nicht zulässig!

Inoffizielle ATIS 🙂